Time;durP1;ratioP1;P1;durP2;ratioP2;P2;SDS_P1;SDS_P2;PMS_P1;PMS_P2;Temp;Humidity;BMP_temperature;BMP_pressure;BME280_temperature;BME280_humidity;BME280_pressure;Samples;Min_cycle;Max_cycle;Signal;HPM_P1;HPM_P2
2022/03/29 00:01:32;;;;;;;32.10;17.53;;;6.70;99.90;;;;;;5049913;28;20217;-47
2022/03/29 00:04:00;;;;;;;30.77;17.80;;;6.70;99.90;;;;;;5058256;28;20203;-45
2022/03/29 00:06:27;;;;;;;31.07;17.33;;;6.70;99.90;;;;;;5059963;28;20218;-45
2022/03/29 00:08:55;;;;;;;33.47;18.63;;;6.70;99.90;;;;;;5062998;28;20209;-45
2022/03/29 00:11:23;;;;;;;34.00;18.23;;;6.70;99.90;;;;;;5062176;28;20303;-44
2022/03/29 00:13:50;;;;;;;33.43;17.90;;;6.70;99.90;;;;;;5064141;28;20280;-44
2022/03/29 00:16:17;;;;;;;26.33;16.37;;;6.80;99.90;;;;;;5045123;28;23913;-46
2022/03/29 00:18:45;;;;;;;31.07;17.80;;;6.70;99.90;;;;;;5064025;28;20294;-44
2022/03/29 00:21:13;;;;;;;31.03;18.03;;;6.70;99.90;;;;;;5055449;28;20240;-49
2022/03/29 00:23:40;;;;;;;26.17;16.33;;;6.80;99.90;;;;;;5063646;28;20191;-46
2022/03/29 00:26:08;;;;;;;32.83;16.60;;;6.70;99.90;;;;;;5059316;28;20226;-46
2022/03/29 00:28:34;;;;;;;32.27;16.73;;;6.70;99.90;;;;;;5063612;28;20187;-47
2022/03/29 00:31:01;;;;;;;30.47;16.67;;;6.70;99.90;;;;;;5059244;28;20201;-45
2022/03/29 00:33:28;;;;;;;29.40;16.87;;;6.80;99.90;;;;;;5048041;28;20360;-50
2022/03/29 00:35:55;;;;;;;33.20;17.17;;;6.80;99.90;;;;;;5060902;28;20327;-44
2022/03/29 00:38:23;;;;;;;38.10;18.00;;;6.80;99.90;;;;;;5059549;28;20285;-45
2022/03/29 00:40:50;;;;;;;31.53;18.73;;;6.80;99.90;;;;;;5063480;28;20206;-47
2022/03/29 00:43:17;;;;;;;26.20;16.30;;;6.80;99.90;;;;;;5060318;28;20183;-45
2022/03/29 00:45:45;;;;;;;33.73;18.37;;;6.80;99.90;;;;;;5062914;28;20249;-43
2022/03/29 00:48:13;;;;;;;32.70;17.43;;;6.80;99.90;;;;;;5045566;28;20848;-45
2022/03/29 00:50:41;;;;;;;30.97;18.57;;;6.80;99.90;;;;;;5063348;28;20205;-46
2022/03/29 00:53:10;;;;;;;33.33;18.50;;;6.80;99.90;;;;;;5054294;28;20296;-44
2022/03/29 00:55:39;;;;;;;30.90;18.30;;;6.80;99.90;;;;;;5063017;28;20218;-48
2022/03/29 00:58:07;;;;;;;32.83;17.57;;;6.80;99.90;;;;;;5059403;28;20205;-46
2022/03/29 01:00:34;;;;;;;32.93;18.53;;;6.80;99.90;;;;;;5061819;28;20616;-43
2022/03/29 01:03:03;;;;;;;34.53;17.10;;;6.80;99.90;;;;;;5052253;28;20279;-44
2022/03/29 01:05:30;;;;;;;35.33;18.80;;;6.90;99.90;;;;;;5059030;28;20222;-45
2022/03/29 01:07:57;;;;;;;29.07;16.40;;;6.80;99.90;;;;;;5047673;28;20206;-46
2022/03/29 01:10:24;;;;;;;31.77;17.37;;;6.90;99.90;;;;;;5060078;28;20206;-44
2022/03/29 01:12:53;;;;;;;32.53;17.67;;;6.80;99.90;;;;;;5062542;28;20233;-46
2022/03/29 01:15:21;;;;;;;30.20;17.10;;;6.90;99.90;;;;;;5059175;28;20213;-47
2022/03/29 01:17:48;;;;;;;30.83;16.33;;;6.90;99.90;;;;;;5062023;28;20222;-47
2022/03/29 01:20:19;;;;;;;29.17;15.67;;;6.90;99.90;;;;;;5042399;28;20263;-50
2022/03/29 01:22:49;;;;;;;25.90;15.57;;;6.90;99.90;;;;;;5057506;28;20701;-49
2022/03/29 01:25:19;;;;;;;27.57;15.17;;;6.90;99.90;;;;;;5059357;28;20529;-44
2022/03/29 01:27:47;;;;;;;27.03;14.47;;;6.80;99.90;;;;;;5062242;28;20202;-45
2022/03/29 01:30:15;;;;;;;22.83;13.77;;;6.90;99.90;;;;;;5052418;28;20919;-47
2022/03/29 01:32:45;;;;;;;27.30;15.07;;;6.90;99.90;;;;;;5062606;28;20297;-49
2022/03/29 01:35:12;;;;;;;25.30;14.63;;;6.90;99.90;;;;;;5037703;28;20211;-43
2022/03/29 01:37:41;;;;;;;26.67;14.40;;;6.90;99.90;;;;;;5061454;28;20195;-43
2022/03/29 01:40:12;;;;;;;25.30;15.03;;;6.90;99.90;;;;;;5052403;28;20194;-48
2022/03/29 01:42:41;;;;;;;25.60;13.93;;;6.90;99.90;;;;;;5061506;28;20202;-44
2022/03/29 01:45:08;;;;;;;25.40;14.30;;;6.90;99.90;;;;;;5058790;28;20249;-48
2022/03/29 01:47:36;;;;;;;24.00;13.70;;;6.90;99.90;;;;;;5061021;28;20203;-45
2022/03/29 01:50:05;;;;;;;23.93;13.53;;;6.90;99.90;;;;;;5041637;28;20213;-47
2022/03/29 01:52:38;;;;;;;20.17;11.97;;;6.90;99.90;;;;;;5061989;28;20222;-45
2022/03/29 01:55:06;;;;;;;19.73;11.77;;;6.90;99.90;;;;;;5050506;28;20234;-45
2022/03/29 01:57:34;;;;;;;21.13;11.30;;;6.90;99.90;;;;;;5061842;28;20683;-45
2022/03/29 02:02:46;;;;;;;21.63;10.63;;;6.90;99.90;;;;;;5062462;28;20202;-44
2022/03/29 02:05:12;;;;;;;22.87;11.30;;;6.90;99.90;;;;;;5041015;28;20808;-44
2022/03/29 02:07:39;;;;;;;21.97;11.27;;;6.90;99.90;;;;;;5062405;28;20707;-44
2022/03/29 02:10:07;;;;;;;21.93;11.40;;;6.90;99.90;;;;;;5055959;28;20202;-49
2022/03/29 02:12:35;;;;;;;20.47;12.67;;;6.90;99.90;;;;;;5061654;28;20213;-46
2022/03/29 02:15:03;;;;;;;18.20;12.27;;;6.90;99.90;;;;;;5059725;28;20221;-49
2022/03/29 02:17:30;;;;;;;20.27;11.83;;;6.90;99.90;;;;;;5063937;28;20202;-47
2022/03/29 02:19:57;;;;;;;24.97;12.50;;;6.90;99.90;;;;;;5049750;28;20214;-48
2022/03/29 02:22:24;;;;;;;21.60;12.10;;;6.90;99.90;;;;;;5064237;28;20183;-44
2022/03/29 02:24:52;;;;;;;18.30;11.80;;;6.90;99.90;;;;;;5065656;28;20213;-46
2022/03/29 02:27:19;;;;;;;27.50;13.07;;;6.90;99.90;;;;;;5057422;28;20203;-44
2022/03/29 02:29:47;;;;;;;19.23;12.10;;;6.90;99.90;;;;;;5065800;28;20203;-45
2022/03/29 02:32:14;;;;;;;23.00;11.90;;;6.80;99.90;;;;;;5060532;28;20194;-43
2022/03/29 02:34:41;;;;;;;19.80;11.40;;;6.80;99.90;;;;;;5065299;28;20222;-43
2022/03/29 02:37:08;;;;;;;17.63;10.37;;;6.70;99.90;;;;;;5044111;28;20206;-43
2022/03/29 02:39:34;;;;;;;18.97;10.57;;;6.70;99.90;;;;;;5065571;28;20210;-44
2022/03/29 02:42:01;;;;;;;16.63;9.80;;;6.70;99.90;;;;;;5061103;28;20209;-46
2022/03/29 02:44:28;;;;;;;19.67;10.63;;;6.60;99.90;;;;;;5062863;28;20205;-44
2022/03/29 02:46:56;;;;;;;20.67;10.77;;;6.60;99.90;;;;;;5063998;28;20218;-46
2022/03/29 02:49:24;;;;;;;19.90;10.50;;;6.50;99.90;;;;;;5063630;28;20377;-44
2022/03/29 02:51:51;;;;;;;15.57;10.13;;;6.50;99.90;;;;;;5049188;28;20203;-46
2022/03/29 02:54:19;;;;;;;17.23;9.93;;;6.50;99.90;;;;;;5062084;28;20216;-46
2022/03/29 02:56:46;;;;;;;18.97;8.53;;;6.50;99.90;;;;;;5064996;28;20237;-44
2022/03/29 02:59:15;;;;;;;23.50;8.43;;;6.50;99.90;;;;;;5056802;28;20198;-44
2022/03/29 03:01:42;;;;;;;13.90;7.10;;;6.40;99.90;;;;;;5065553;28;20209;-49
2022/03/29 03:04:12;;;;;;;12.53;6.97;;;6.30;99.90;;;;;;5061603;28;20199;-48
2022/03/29 03:06:40;;;;;;;20.37;7.00;;;6.30;99.90;;;;;;5055299;28;20562;-45
2022/03/29 03:09:07;;;;;;;12.90;6.27;;;6.20;99.90;;;;;;5055288;28;20240;-48
2022/03/29 03:11:34;;;;;;;17.97;6.53;;;6.20;99.90;;;;;;5064455;28;20211;-45
2022/03/29 03:14:01;;;;;;;14.07;5.80;;;6.10;99.90;;;;;;5057129;28;20226;-44
2022/03/29 03:16:28;;;;;;;20.90;6.07;;;6.10;99.90;;;;;;5063532;28;20211;-46
2022/03/29 03:18:56;;;;;;;19.00;5.83;;;6.00;99.90;;;;;;5064149;28;20203;-44
2022/03/29 03:21:24;;;;;;;13.73;5.40;;;5.90;99.90;;;;;;5062845;28;20217;-45
2022/03/29 03:23:51;;;;;;;14.83;5.00;;;5.80;99.90;;;;;;5052652;28;20225;-48
2022/03/29 03:26:18;;;;;;;15.27;5.77;;;5.80;99.90;;;;;;5061096;28;20222;-46
2022/03/29 03:28:45;;;;;;;17.83;5.00;;;5.70;99.90;;;;;;5058786;28;20207;-44
2022/03/29 03:31:12;;;;;;;18.87;5.07;;;5.70;99.90;;;;;;5060804;28;20219;-45
2022/03/29 03:33:39;;;;;;;12.77;4.13;;;5.70;99.90;;;;;;5064596;28;20210;-44
2022/03/29 03:36:07;;;;;;;19.63;5.40;;;5.60;99.90;;;;;;5060758;28;20222;-45
2022/03/29 03:38:35;;;;;;;16.13;4.77;;;5.60;99.90;;;;;;5051267;28;20210;-45
2022/03/29 03:41:02;;;;;;;20.83;4.40;;;5.50;99.90;;;;;;5061421;28;20202;-48
2022/03/29 03:43:29;;;;;;;13.93;4.73;;;5.50;99.90;;;;;;5049186;28;20206;-45
2022/03/29 03:45:56;;;;;;;18.10;4.10;;;5.40;99.90;;;;;;5060158;28;20295;-45
2022/03/29 03:48:24;;;;;;;16.50;4.20;;;5.40;99.90;;;;;;5058974;28;20205;-45
2022/03/29 03:50:50;;;;;;;18.57;4.63;;;5.30;99.90;;;;;;5061901;28;20187;-46
2022/03/29 03:53:17;;;;;;;14.77;4.47;;;5.30;99.90;;;;;;5051600;28;20244;-49
2022/03/29 03:55:46;;;;;;;27.70;4.77;;;5.20;99.90;;;;;;5060513;28;20217;-47
2022/03/29 03:58:13;;;;;;;17.47;4.53;;;5.20;99.90;;;;;;5064343;28;20554;-44
2022/03/29 04:00:40;;;;;;;22.53;4.23;;;5.20;99.90;;;;;;5046068;28;20203;-43
2022/03/29 04:03:09;;;;;;;16.70;4.43;;;5.10;99.90;;;;;;5059330;28;20260;-45
2022/03/29 04:05:36;;;;;;;19.40;3.87;;;5.20;99.90;;;;;;5060052;28;20214;-45
2022/03/29 04:08:03;;;;;;;19.13;4.50;;;5.10;99.90;;;;;;5063789;28;20199;-48
2022/03/29 04:10:31;;;;;;;22.80;5.20;;;5.00;99.90;;;;;;5051120;28;20233;-44
2022/03/29 04:12:59;;;;;;;19.10;5.20;;;5.00;99.90;;;;;;5061244;28;20689;-46
2022/03/29 04:15:26;;;;;;;21.30;6.10;;;5.00;99.90;;;;;;5053954;28;20222;-46
2022/03/29 04:17:53;;;;;;;15.53;4.93;;;4.90;99.90;;;;;;5061665;28;20278;-45
2022/03/29 04:20:20;;;;;;;15.77;4.23;;;4.90;99.90;;;;;;5052074;28;20714;-47
2022/03/29 04:22:47;;;;;;;20.50;5.47;;;4.80;99.90;;;;;;5056235;28;20209;-46
2022/03/29 04:25:14;;;;;;;20.30;4.83;;;4.80;99.90;;;;;;5038354;28;20340;-49
2022/03/29 04:27:41;;;;;;;14.63;4.03;;;4.80;99.90;;;;;;5050838;28;20198;-46
2022/03/29 04:30:11;;;;;;;15.77;4.30;;;4.70;99.90;;;;;;5054882;28;20205;-46
2022/03/29 04:32:39;;;;;;;16.60;3.73;;;4.70;99.90;;;;;;5057511;28;20968;-46
2022/03/29 04:35:07;;;;;;;20.30;5.30;;;4.60;99.90;;;;;;5061804;28;20226;-45
2022/03/29 04:37:34;;;;;;;19.60;4.20;;;4.60;99.90;;;;;;5055245;28;20224;-46
2022/03/29 04:40:00;;;;;;;17.07;3.80;;;4.60;99.90;;;;;;5064083;28;20199;-48
2022/03/29 04:42:27;;;;;;;11.77;3.20;;;4.50;99.90;;;;;;5045918;28;20207;-46
2022/03/29 04:44:54;;;;;;;15.93;4.57;;;4.50;99.90;;;;;;5063302;28;20206;-47
2022/03/29 04:47:23;;;;;;;14.87;3.67;;;4.50;99.90;;;;;;5053822;28;20210;-49
2022/03/29 04:49:49;;;;;;;22.17;3.87;;;4.60;99.90;;;;;;5063723;28;20210;-46
2022/03/29 04:52:17;;;;;;;24.23;3.80;;;4.40;99.90;;;;;;5054887;28;20683;-48
2022/03/29 04:54:43;;;;;;;22.93;5.13;;;4.40;99.90;;;;;;5062464;28;20218;-44
2022/03/29 04:57:10;;;;;;;15.10;3.80;;;4.40;99.90;;;;;;5047437;28;20211;-46
2022/03/29 04:59:37;;;;;;;23.67;4.20;;;4.40;99.90;;;;;;5061350;28;20202;-44
2022/03/29 05:02:04;;;;;;;22.23;4.10;;;4.30;99.90;;;;;;5057496;28;20203;-48
2022/03/29 05:04:33;;;;;;;15.10;3.90;;;4.30;99.90;;;;;;5059506;28;20179;-45
2022/03/29 05:07:00;;;;;;;12.30;3.43;;;4.30;99.90;;;;;;5062999;28;20710;-46
2022/03/29 05:09:28;;;;;;;19.70;3.80;;;4.30;99.90;;;;;;5053483;28;20205;-46
2022/03/29 05:11:57;;;;;;;15.47;3.03;;;4.30;99.90;;;;;;5049657;28;20252;-43
2022/03/29 05:14:24;;;;;;;20.10;3.27;;;4.20;99.90;;;;;;5059003;28;20264;-48
2022/03/29 05:16:51;;;;;;;12.53;4.13;;;4.20;99.90;;;;;;5057176;28;20237;-49
2022/03/29 05:19:17;;;;;;;18.23;4.13;;;4.20;99.90;;;;;;5060279;28;20205;-46
2022/03/29 05:21:46;;;;;;;17.13;4.23;;;4.20;99.90;;;;;;5062392;28;20194;-50
2022/03/29 05:24:13;;;;;;;21.60;3.70;;;4.10;99.90;;;;;;5055554;28;20199;-46
2022/03/29 05:26:40;;;;;;;16.60;3.30;;;4.20;99.90;;;;;;5060638;28;20221;-44
2022/03/29 05:29:07;;;;;;;21.70;3.37;;;4.20;99.90;;;;;;5047986;28;20313;-47
2022/03/29 05:31:34;;;;;;;15.33;3.43;;;4.10;99.90;;;;;;5059582;28;20194;-43
2022/03/29 05:34:01;;;;;;;17.63;3.30;;;4.20;99.90;;;;;;5057700;28;20230;-45
2022/03/29 05:36:28;;;;;;;20.47;3.90;;;4.20;99.90;;;;;;5057531;28;20207;-45
2022/03/29 05:38:56;;;;;;;21.20;4.50;;;4.20;99.90;;;;;;5057327;28;20214;-45
2022/03/29 05:41:23;;;;;;;17.83;3.77;;;4.20;99.90;;;;;;5057702;28;20194;-46
2022/03/29 05:43:51;;;;;;;16.80;3.13;;;4.30;99.90;;;;;;5050110;28;20567;-44
2022/03/29 05:49:04;;;;;;;17.63;3.67;;;4.20;99.90;;;;;;5053222;28;20206;-45
2022/03/29 05:51:31;;;;;;;17.10;3.77;;;4.20;99.90;;;;;;5060563;28;21070;-45
2022/03/29 05:54:01;;;;;;;21.67;3.80;;;4.20;99.90;;;;;;5060567;28;20272;-43
2022/03/29 05:56:28;;;;;;;18.23;3.20;;;4.30;99.90;;;;;;5061721;28;20229;-44
2022/03/29 05:58:54;;;;;;;22.17;3.70;;;4.30;99.90;;;;;;5055607;28;20217;-48
2022/03/29 06:01:21;;;;;;;14.90;3.47;;;4.30;99.90;;;;;;5062271;28;20233;-46
2022/03/29 06:03:48;;;;;;;16.40;3.93;;;4.30;99.90;;;;;;5061772;28;20194;-46
2022/03/29 06:06:14;;;;;;;21.53;3.87;;;4.40;99.90;;;;;;5063046;28;20218;-45
2022/03/29 06:08:41;;;;;;;16.30;3.60;;;4.40;99.90;;;;;;5065236;28;20202;-47
2022/03/29 06:11:09;;;;;;;15.63;3.20;;;4.50;99.90;;;;;;5056628;28;20670;-46
2022/03/29 06:13:37;;;;;;;16.20;3.53;;;4.50;99.90;;;;;;5063753;28;20309;-46
2022/03/29 06:16:04;;;;;;;17.90;3.57;;;4.50;99.90;;;;;;5051290;28;20671;-48
2022/03/29 06:18:32;;;;;;;13.77;3.23;;;4.50;99.90;;;;;;5056971;28;20213;-45
2022/03/29 06:20:59;;;;;;;19.13;3.47;;;4.60;99.90;;;;;;5066192;28;20210;-44
2022/03/29 06:23:26;;;;;;;17.37;3.20;;;4.60;99.90;;;;;;5061869;28;20198;-44
2022/03/29 06:25:54;;;;;;;16.60;2.97;;;4.60;99.90;;;;;;5059584;28;20306;-44
2022/03/29 06:28:22;;;;;;;17.83;3.57;;;4.60;99.90;;;;;;5062052;28;20308;-46
2022/03/29 06:30:50;;;;;;;11.73;3.10;;;4.60;99.90;;;;;;5049400;28;20207;-43
2022/03/29 06:33:19;;;;;;;15.43;2.90;;;4.70;99.90;;;;;;5062228;28;20677;-48
2022/03/29 06:35:46;;;;;;;19.20;3.07;;;4.70;99.90;;;;;;5059351;28;20223;-43
2022/03/29 06:38:13;;;;;;;12.07;2.60;;;4.80;99.90;;;;;;5064118;28;20531;-48
2022/03/29 06:40:40;;;;;;;8.70;2.53;;;4.90;99.90;;;;;;5058180;28;20205;-45
2022/03/29 06:43:07;;;;;;;15.87;2.97;;;4.90;99.90;;;;;;5064959;28;20206;-45
2022/03/29 06:45:35;;;;;;;12.67;2.70;;;5.00;99.90;;;;;;5062232;28;20217;-46
2022/03/29 06:48:03;;;;;;;13.27;2.60;;;5.00;99.90;;;;;;5053724;28;20199;-44
2022/03/29 06:50:29;;;;;;;8.63;2.93;;;5.10;99.90;;;;;;5056540;28;20209;-43
2022/03/29 06:52:59;;;;;;;9.50;2.10;;;5.20;99.90;;;;;;5065657;28;20195;-45
2022/03/29 06:55:27;;;;;;;13.93;2.27;;;5.20;99.90;;;;;;5055411;28;20226;-43
2022/03/29 06:57:54;;;;;;;11.23;2.53;;;5.30;99.90;;;;;;5064693;28;20567;-44
2022/03/29 07:00:21;;;;;;;12.23;2.23;;;5.20;99.90;;;;;;5061099;28;20210;-47
2022/03/29 07:02:50;;;;;;;13.67;2.57;;;5.40;99.90;;;;;;5047828;28;20687;-43
2022/03/29 07:05:16;;;;;;;9.67;2.27;;;5.50;99.90;;;;;;5058588;28;20214;-47
2022/03/29 07:07:43;;;;;;;10.20;2.30;;;5.70;99.90;;;;;;5062504;28;20203;-44
2022/03/29 07:12:57;;;;;;;14.20;3.00;;;5.70;99.90;;;;;;5059809;28;20226;-46
2022/03/29 07:15:25;;;;;;;13.43;2.10;;;5.80;99.90;;;;;;5060435;28;20773;-43
2022/03/29 07:17:55;;;;;;;7.53;2.00;;;5.80;99.90;;;;;;5050970;28;20280;-44
2022/03/29 07:20:22;;;;;;;8.87;2.27;;;5.90;99.90;;;;;;5051671;28;20199;-46
2022/03/29 07:22:50;;;;;;;10.40;1.90;;;5.80;99.90;;;;;;5059672;28;20609;-47
2022/03/29 07:25:19;;;;;;;12.40;2.20;;;5.80;99.90;;;;;;5056467;28;20226;-46
2022/03/29 07:27:47;;;;;;;11.53;1.80;;;5.90;99.90;;;;;;5061194;28;20206;-43
2022/03/29 07:30:15;;;;;;;7.40;2.07;;;5.90;99.90;;;;;;5040504;28;20206;-46
2022/03/29 07:32:46;;;;;;;8.53;1.63;;;5.70;99.90;;;;;;5054738;28;20674;-44
2022/03/29 07:35:16;;;;;;;12.10;2.07;;;6.00;99.90;;;;;;5056557;28;21017;-45
2022/03/29 07:37:43;;;;;;;12.43;1.80;;;6.10;99.90;;;;;;5053407;28;20194;-47
2022/03/29 07:40:12;;;;;;;11.37;2.57;;;6.20;99.90;;;;;;5054303;28;20953;-43
2022/03/29 07:42:39;;;;;;;8.60;2.17;;;6.20;99.90;;;;;;5060211;28;20207;-45
2022/03/29 07:45:07;;;;;;;9.97;1.90;;;6.30;99.90;;;;;;5048059;28;20327;-46
2022/03/29 07:47:35;;;;;;;12.57;2.47;;;6.40;99.90;;;;;;5061680;28;20281;-45
2022/03/29 07:50:06;;;;;;;10.10;2.07;;;6.40;99.90;;;;;;5045148;28;20242;-44
2022/03/29 07:52:34;;;;;;;10.00;2.23;;;6.40;99.90;;;;;;5056150;28;20255;-44
2022/03/29 07:55:02;;;;;;;5.27;1.40;;;6.40;99.90;;;;;;5053071;28;20299;-44
2022/03/29 07:57:29;;;;;;;6.60;1.60;;;6.40;99.90;;;;;;5060581;28;20214;-44
2022/03/29 07:59:56;;;;;;;12.97;2.17;;;6.50;99.90;;;;;;5045930;28;20191;-43
2022/03/29 08:02:23;;;;;;;4.80;1.70;;;6.50;99.90;;;;;;5061332;28;20209;-47
2022/03/29 08:04:50;;;;;;;12.60;2.50;;;6.50;99.90;;;;;;5047041;28;20198;-47
2022/03/29 08:07:16;;;;;;;16.30;2.40;;;6.50;99.90;;;;;;5059499;28;20202;-43
2022/03/29 08:09:45;;;;;;;11.43;1.90;;;6.50;99.90;;;;;;5048206;28;20252;-43
2022/03/29 08:12:11;;;;;;;9.63;2.30;;;6.60;99.90;;;;;;5052139;28;20214;-42
2022/03/29 08:14:38;;;;;;;10.83;1.67;;;6.60;99.90;;;;;;5054628;28;20227;-46
2022/03/29 08:17:05;;;;;;;9.77;1.47;;;6.70;99.90;;;;;;5051900;28;20214;-43
2022/03/29 08:19:32;;;;;;;10.17;1.83;;;6.70;99.90;;;;;;5052995;28;20213;-44
2022/03/29 08:21:58;;;;;;;9.93;1.83;;;6.60;99.90;;;;;;5056710;28;20380;-43
2022/03/29 08:24:26;;;;;;;10.53;1.93;;;6.80;99.90;;;;;;5051324;28;20207;-45
2022/03/29 08:26:55;;;;;;;7.70;2.00;;;6.80;99.90;;;;;;5056925;28;20625;-43
2022/03/29 08:29:22;;;;;;;8.57;2.03;;;6.80;99.90;;;;;;5055164;28;20290;-50
2022/03/29 08:31:52;;;;;;;10.83;2.30;;;6.80;99.90;;;;;;5053401;28;20201;-46
2022/03/29 08:34:19;;;;;;;9.13;2.10;;;6.70;99.90;;;;;;5046404;28;20209;-46
2022/03/29 08:36:49;;;;;;;6.57;1.97;;;6.90;99.90;;;;;;5058221;28;20234;-44
2022/03/29 08:39:15;;;;;;;5.13;1.70;;;6.90;99.90;;;;;;5054324;28;20206;-46
2022/03/29 08:41:47;;;;;;;10.63;2.10;;;6.80;99.90;;;;;;5054243;28;20216;-43
2022/03/29 08:44:15;;;;;;;7.33;2.20;;;6.90;99.90;;;;;;5054059;28;20682;-44
2022/03/29 08:46:42;;;;;;;12.20;2.10;;;7.00;99.90;;;;;;5050653;28;20530;-44
2022/03/29 08:49:10;;;;;;;4.90;1.67;;;7.10;99.90;;;;;;5056125;28;20290;-43
2022/03/29 08:51:38;;;;;;;15.37;1.87;;;7.20;99.90;;;;;;5045397;28;20210;-45
2022/03/29 08:54:06;;;;;;;7.63;1.60;;;7.30;99.90;;;;;;5050964;28;20464;-45
2022/03/29 08:56:33;;;;;;;5.77;1.83;;;7.40;99.90;;;;;;5043466;28;20222;-45
2022/03/29 08:59:00;;;;;;;10.67;1.70;;;7.40;99.90;;;;;;5051493;28;20194;-47
2022/03/29 09:01:28;;;;;;;5.47;1.67;;;7.30;99.90;;;;;;5055866;28;20214;-45
2022/03/29 09:04:09;;;;;;;10.07;1.97;;;7.30;99.90;;;;;;5053094;28;20807;-50
2022/03/29 09:06:56;;;;;;;10.67;1.80;;;7.40;99.90;;;;;;5050483;28;20217;-44
2022/03/29 09:09:24;;;;;;;8.83;1.97;;;7.50;99.90;;;;;;5061696;28;20194;-43
2022/03/29 09:11:53;;;;;;;3.30;1.67;;;7.60;99.90;;;;;;5047279;28;20248;-46
2022/03/29 09:14:20;;;;;;;7.93;1.97;;;7.60;99.90;;;;;;5050341;28;20873;-46
2022/03/29 09:16:48;;;;;;;8.87;1.77;;;7.60;99.90;;;;;;5056175;28;20222;-44
2022/03/29 09:19:16;;;;;;;8.30;1.40;;;7.80;99.90;;;;;;5048202;28;20195;-47
2022/03/29 09:21:46;;;;;;;5.57;1.70;;;7.90;99.90;;;;;;5045234;28;20290;-45
2022/03/29 09:24:15;;;;;;;5.90;1.57;;;7.90;99.90;;;;;;5053684;28;20277;-46
2022/03/29 09:26:44;;;;;;;8.10;1.50;;;7.90;99.90;;;;;;5056020;28;20222;-46
2022/03/29 09:29:19;;;;;;;9.23;1.33;;;7.90;99.90;;;;;;5059465;28;20209;-44
2022/03/29 09:32:01;;;;;;;11.00;2.13;;;7.90;99.90;;;;;;5051697;28;20209;-44
2022/03/29 09:34:29;;;;;;;3.30;0.80;;;7.80;99.90;;;;;;5050928;28;20195;-44
2022/03/29 09:36:56;;;;;;;4.43;1.37;;;7.90;99.90;;;;;;5051586;28;20229;-44
2022/03/29 09:39:37;;;;;;;6.93;1.47;;;8.00;99.90;;;;;;5051886;28;20324;-48
2022/03/29 09:42:08;;;;;;;4.67;1.13;;;8.10;99.90;;;;;;5056153;28;20685;-47
2022/03/29 09:44:41;;;;;;;9.13;1.53;;;8.00;99.90;;;;;;5058916;28;20213;-44
2022/03/29 09:47:12;;;;;;;7.87;1.60;;;8.00;99.90;;;;;;5054002;28;20218;-45
2022/03/29 09:49:56;;;;;;;4.63;1.40;;;8.10;99.90;;;;;;5054671;28;20206;-46
2022/03/29 09:52:25;;;;;;;9.83;1.50;;;8.10;99.90;;;;;;5045351;28;23508;-45
2022/03/29 09:55:12;;;;;;;7.53;1.67;;;8.10;99.90;;;;;;5067130;28;20202;-47
2022/03/29 09:57:41;;;;;;;4.87;1.03;;;8.10;99.90;;;;;;5055818;28;20290;-47
2022/03/29 10:00:09;;;;;;;6.60;1.33;;;8.30;99.90;;;;;;5058808;28;20195;-44
2022/03/29 10:02:47;;;;;;;6.83;1.30;;;8.30;99.90;;;;;;5054573;28;20202;-43
2022/03/29 10:05:17;;;;;;;6.93;1.17;;;8.30;99.90;;;;;;5053138;28;20698;-48
2022/03/29 10:07:46;;;;;;;5.93;1.40;;;8.30;99.90;;;;;;5061783;28;20199;-46
2022/03/29 10:10:13;;;;;;;4.57;1.33;;;8.30;99.90;;;;;;5046109;28;20213;-49
2022/03/29 10:12:40;;;;;;;5.50;1.37;;;8.50;99.90;;;;;;5055702;28;20203;-43
2022/03/29 10:15:09;;;;;;;6.10;1.30;;;8.60;99.90;;;;;;5059575;28;20241;-44
2022/03/29 10:17:37;;;;;;;3.83;1.07;;;8.80;99.90;;;;;;5060613;28;20199;-44
2022/03/29 10:20:06;;;;;;;7.30;1.40;;;8.90;99.90;;;;;;5055253;28;20660;-45
2022/03/29 10:22:36;;;;;;;6.43;1.60;;;8.70;99.90;;;;;;5053039;28;20198;-44
2022/03/29 10:25:04;;;;;;;4.77;1.00;;;8.70;99.90;;;;;;5039879;28;20207;-44
2022/03/29 10:27:31;;;;;;;5.23;1.00;;;8.70;99.50;;;;;;5053203;28;20206;-45
2022/03/29 10:29:58;;;;;;;20.50;2.80;;;8.80;99.30;;;;;;5043765;28;22144;-45
2022/03/29 10:32:31;;;;;;;6.10;1.30;;;8.80;99.70;;;;;;5060762;28;20202;-45
2022/03/29 10:35:08;;;;;;;5.13;1.30;;;9.00;99.90;;;;;;5043344;28;20207;-46
2022/03/29 10:37:55;;;;;;;5.60;1.27;;;9.00;99.90;;;;;;5050953;28;20206;-46
2022/03/29 10:40:43;;;;;;;7.83;1.60;;;9.00;99.80;;;;;;5046168;28;20299;-45
2022/03/29 10:43:27;;;;;;;7.13;1.30;;;9.10;99.80;;;;;;5049502;28;20221;-46
2022/03/29 10:45:54;;;;;;;5.87;1.40;;;9.00;99.00;;;;;;5054627;28;20409;-45
2022/03/29 10:48:21;;;;;;;3.37;1.07;;;9.00;99.80;;;;;;5062809;28;20614;-46
2022/03/29 10:50:57;;;;;;;6.10;1.63;;;9.00;99.80;;;;;;5043365;28;20328;-47
2022/03/29 10:53:25;;;;;;;4.80;1.27;;;9.00;98.80;;;;;;5059136;28;20252;-47
2022/03/29 10:56:20;;;;;;;5.20;1.07;;;9.10;99.40;;;;;;5037097;28;20237;-50
2022/03/29 10:59:15;;;;;;;7.83;1.30;;;9.20;98.90;;;;;;5049409;28;20202;-48
2022/03/29 11:01:43;;;;;;;8.37;1.47;;;9.10;98.40;;;;;;5060570;28;20617;-50
2022/03/29 11:04:23;;;;;;;2.73;1.00;;;9.20;98.90;;;;;;5049484;28;20214;-45
2022/03/29 11:07:15;;;;;;;3.53;1.40;;;9.30;96.00;;;;;;5051216;28;20207;-48
2022/03/29 11:09:46;;;;;;;5.20;1.10;;;9.30;95.50;;;;;;5039081;28;20227;-50
2022/03/29 11:12:39;;;;;;;4.13;1.10;;;9.40;96.60;;;;;;5047082;28;20215;-44
2022/03/29 11:15:45;;;;;;;5.90;1.40;;;9.50;94.80;;;;;;5056588;28;20268;-45
2022/03/29 11:18:48;;;;;;;4.30;1.40;;;9.40;95.90;;;;;;5061747;28;20198;-44
2022/03/29 11:21:39;;;;;;;6.73;1.53;;;9.50;95.90;;;;;;5055515;28;20806;-50
2022/03/29 11:24:10;;;;;;;3.33;1.07;;;9.50;96.90;;;;;;5054724;28;20221;-53
2022/03/29 11:26:37;;;;;;;4.97;1.27;;;9.60;96.70;;;;;;5037449;28;20222;-48
2022/03/29 11:29:08;;;;;;;6.47;1.20;;;9.60;96.10;;;;;;5063810;28;20194;-46
2022/03/29 11:31:37;;;;;;;5.07;1.47;;;9.50;95.60;;;;;;5050712;28;20203;-46
2022/03/29 11:34:06;;;;;;;3.90;1.20;;;9.60;95.70;;;;;;5062737;28;20207;-45
2022/03/29 11:36:36;;;;;;;7.90;1.47;;;9.70;95.00;;;;;;5052730;28;20892;-44
2022/03/29 11:39:23;;;;;;;4.87;0.97;;;9.70;95.50;;;;;;5055975;28;20286;-44
2022/03/29 11:41:52;;;;;;;3.80;1.00;;;9.90;94.50;;;;;;5056919;28;20207;-45
2022/03/29 11:44:22;;;;;;;3.80;1.00;;;9.70;95.30;;;;;;5040580;28;20222;-46
2022/03/29 11:46:51;;;;;;;3.83;1.10;;;9.70;95.30;;;;;;5052241;28;20217;-42
2022/03/29 11:49:21;;;;;;;7.67;1.27;;;9.80;95.60;;;;;;5057556;28;20230;-44
2022/03/29 11:52:06;;;;;;;7.63;1.40;;;9.70;95.80;;;;;;5053855;28;20195;-44
2022/03/29 11:54:40;;;;;;;4.37;1.10;;;9.70;95.80;;;;;;5058387;28;20555;-44
2022/03/29 11:57:18;;;;;;;4.60;1.33;;;9.80;96.60;;;;;;5060884;28;20233;-43
2022/03/29 11:59:45;;;;;;;7.37;1.40;;;10.00;95.10;;;;;;5057578;28;20209;-44
2022/03/29 12:02:12;;;;;;;10.27;1.50;;;10.10;95.40;;;;;;5056152;28;20214;-46
2022/03/29 12:04:39;;;;;;;6.33;1.40;;;10.10;95.00;;;;;;5059230;28;20220;-45
2022/03/29 12:07:06;;;;;;;7.13;1.50;;;10.00;94.60;;;;;;5057708;28;20226;-45
2022/03/29 12:09:33;;;;;;;6.77;1.50;;;9.90;95.00;;;;;;5058784;28;20194;-43
2022/03/29 12:12:03;;;;;;;6.57;1.30;;;10.00;95.50;;;;;;5063151;28;20281;-44
2022/03/29 12:14:31;;;;;;;4.57;1.47;;;10.20;95.50;;;;;;5046202;28;20221;-46
2022/03/29 12:17:03;;;;;;;6.33;1.93;;;10.30;95.50;;;;;;5055898;28;20233;-44
2022/03/29 12:19:32;;;;;;;8.63;1.40;;;10.10;94.90;;;;;;5060165;28;20258;-43
2022/03/29 12:22:01;;;;;;;4.37;1.80;;;10.10;94.70;;;;;;5057845;28;20563;-44
2022/03/29 12:24:33;;;;;;;3.70;0.90;;;9.90;95.00;;;;;;5059609;28;20187;-46
2022/03/29 12:27:06;;;;;;;4.00;1.30;;;10.00;95.10;;;;;;5054271;28;20299;-45
2022/03/29 12:29:39;;;;;;;5.30;1.13;;;10.10;94.60;;;;;;5043834;28;20295;-44
2022/03/29 12:32:07;;;;;;;5.50;1.30;;;10.20;94.80;;;;;;5050898;28;20205;-44
2022/03/29 12:34:34;;;;;;;10.30;1.43;;;10.30;94.30;;;;;;5054765;28;20209;-43
2022/03/29 12:37:03;;;;;;;5.27;1.20;;;10.30;94.60;;;;;;5053779;28;20244;-45
2022/03/29 12:39:34;;;;;;;5.37;1.00;;;10.30;94.70;;;;;;5061028;28;20218;-43
2022/03/29 12:42:03;;;;;;;7.63;1.20;;;10.30;92.00;;;;;;5057107;28;20209;-44
2022/03/29 12:44:35;;;;;;;3.97;1.00;;;10.10;93.50;;;;;;5062024;28;20305;-44
2022/03/29 12:47:04;;;;;;;6.80;1.43;;;10.00;94.00;;;;;;5044146;28;20572;-43
2022/03/29 12:49:33;;;;;;;5.30;1.50;;;9.90;94.20;;;;;;5051467;28;20752;-43
2022/03/29 12:52:02;;;;;;;7.30;1.07;;;9.80;94.40;;;;;;5058760;28;20210;-44
2022/03/29 12:54:37;;;;;;;4.90;1.10;;;9.80;94.80;;;;;;5055237;28;20210;-43
2022/03/29 12:57:06;;;;;;;8.37;1.10;;;9.90;95.20;;;;;;5054508;28;20619;-43
2022/03/29 12:59:36;;;;;;;5.67;1.40;;;10.10;95.20;;;;;;5060825;28;20209;-44
2022/03/29 13:02:14;;;;;;;5.43;1.13;;;10.30;95.50;;;;;;5051700;28;20684;-47
2022/03/29 13:04:43;;;;;;;5.07;1.30;;;10.60;94.70;;;;;;5055893;28;20210;-43
2022/03/29 13:07:11;;;;;;;3.87;1.20;;;10.60;95.50;;;;;;5052593;28;20224;-44